createdAt,value
2017-03-29T00:00:31.541Z,7.92
2017-03-29T00:01:30.866Z,7.20
2017-03-29T00:02:30.356Z,9.17
2017-03-29T00:03:29.658Z,9.73
2017-03-29T00:04:29.074Z,8.62
2017-03-29T00:05:28.451Z,9.47
2017-03-29T00:06:27.905Z,8.77
2017-03-29T00:07:27.226Z,10.02
2017-03-29T00:08:26.578Z,9.57
2017-03-29T00:09:25.925Z,6.85
2017-03-29T00:10:25.369Z,10.05
2017-03-29T00:11:24.751Z,6.63
2017-03-29T00:12:24.147Z,9.35
2017-03-29T00:13:23.592Z,7.70
2017-03-29T00:14:22.903Z,7.48
2017-03-29T00:15:22.233Z,8.20
2017-03-29T00:16:21.574Z,7.88
2017-03-29T00:17:21.670Z,10.03
2017-03-29T00:18:21.403Z,9.48
2017-03-29T00:19:20.741Z,8.40
2017-03-29T00:20:20.117Z,6.08
2017-03-29T00:21:19.504Z,11.27
2017-03-29T00:22:18.865Z,6.95
2017-03-29T00:23:18.229Z,6.53
2017-03-29T00:24:18.311Z,8.90
2017-03-29T00:25:17.724Z,8.58
2017-03-29T00:26:17.100Z,8.98
2017-03-29T00:27:16.422Z,9.00
2017-03-29T00:28:15.808Z,14.00
2017-03-29T00:29:15.258Z,13.83
2017-03-29T00:30:14.857Z,13.17
2017-03-29T00:31:14.167Z,10.22
2017-03-29T00:32:13.461Z,9.92
2017-03-29T00:33:12.802Z,10.33
2017-03-29T00:34:12.167Z,8.15
2017-03-29T00:35:11.561Z,13.30
2017-03-29T00:36:11.033Z,14.37
2017-03-29T00:37:10.370Z,12.73
2017-03-29T00:38:09.747Z,13.07
2017-03-29T00:39:09.054Z,12.32
2017-03-29T00:40:08.385Z,13.63
2017-03-29T00:41:08.758Z,11.57
2017-03-29T00:42:08.150Z,10.40
2017-03-29T00:43:07.512Z,11.43
2017-03-29T00:44:06.869Z,9.12
2017-03-29T00:45:06.234Z,7.68
2017-03-29T00:46:05.623Z,16.70
2017-03-29T00:47:04.975Z,9.55
2017-03-29T00:48:04.658Z,8.93
2017-03-29T00:49:04.034Z,9.43
2017-03-29T00:50:03.438Z,10.43
2017-03-29T00:51:03.489Z,8.93
2017-03-29T00:52:02.840Z,9.68
2017-03-29T00:53:02.180Z,8.50
2017-03-29T00:54:01.611Z,9.38
2017-03-29T00:55:01.023Z,8.65
2017-03-29T00:56:00.382Z,13.63
2017-03-29T00:56:59.754Z,9.50
2017-03-29T00:57:59.095Z,9.12
2017-03-29T00:58:58.421Z,9.10
2017-03-29T00:59:57.842Z,11.77
2017-03-29T01:00:57.242Z,9.57
2017-03-29T01:01:56.863Z,8.58
2017-03-29T01:02:56.213Z,9.98
2017-03-29T01:03:55.556Z,9.33
2017-03-29T01:04:54.891Z,9.25
2017-03-29T01:05:54.442Z,7.82
2017-03-29T01:06:53.854Z,8.87
2017-03-29T01:07:53.225Z,8.10
2017-03-29T01:08:53.281Z,9.62
2017-03-29T01:09:52.650Z,10.07
2017-03-29T01:10:52.100Z,8.27
2017-03-29T01:11:51.544Z,8.47
2017-03-29T01:12:50.925Z,8.05
2017-03-29T01:13:50.331Z,11.47
2017-03-29T01:14:49.741Z,12.93
2017-03-29T01:15:49.111Z,8.52
2017-03-29T01:16:48.441Z,11.40
2017-03-29T01:17:47.813Z,9.52
2017-03-29T01:18:47.170Z,10.78
2017-03-29T01:19:46.519Z,8.43
2017-03-29T01:20:45.910Z,12.50
2017-03-29T01:21:45.253Z,8.88
2017-03-29T01:22:44.559Z,10.75
2017-03-29T01:23:44.250Z,8.18
2017-03-29T01:24:43.637Z,8.27
2017-03-29T01:25:43.038Z,10.02
2017-03-29T01:26:42.361Z,8.95
2017-03-29T01:27:41.739Z,8.25
2017-03-29T01:28:41.110Z,9.13
2017-03-29T01:29:40.471Z,10.57
2017-03-29T01:30:39.846Z,9.18
2017-03-29T01:31:39.212Z,9.37
2017-03-29T01:32:38.527Z,13.33
2017-03-29T01:33:37.887Z,8.58
2017-03-29T01:34:37.278Z,13.38
2017-03-29T01:35:36.612Z,7.75
2017-03-29T01:36:35.994Z,14.02
2017-03-29T01:37:35.360Z,8.87
2017-03-29T01:38:35.445Z,7.48
2017-03-29T01:39:34.940Z,7.72
2017-03-29T01:40:34.349Z,9.30
2017-03-29T01:41:34.859Z,15.90
2017-03-29T01:42:34.228Z,8.85
2017-03-29T01:43:33.598Z,10.42
2017-03-29T01:44:32.924Z,9.57
2017-03-29T01:45:32.270Z,10.87
2017-03-29T01:46:31.609Z,10.85
2017-03-29T01:47:31.061Z,8.72
2017-03-29T01:48:30.465Z,8.88
2017-03-29T01:49:29.769Z,8.98
2017-03-29T01:50:29.227Z,11.68
2017-03-29T01:51:28.610Z,11.53
2017-03-29T01:52:27.927Z,9.00
2017-03-29T01:53:27.297Z,9.67
2017-03-29T01:54:26.618Z,9.63
2017-03-29T01:55:25.988Z,9.78
2017-03-29T01:56:25.358Z,9.08
2017-03-29T01:57:24.718Z,10.57
2017-03-29T01:58:24.002Z,8.55
2017-03-29T01:59:23.571Z,9.58
2017-03-29T02:00:22.890Z,9.43
2017-03-29T02:01:22.521Z,11.53
2017-03-29T02:02:22.011Z,8.65
2017-03-29T02:03:21.399Z,10.05
2017-03-29T02:04:20.686Z,7.63
2017-03-29T02:05:20.129Z,7.12
2017-03-29T02:06:19.551Z,8.45
2017-03-29T02:07:18.908Z,10.87
2017-03-29T02:08:18.235Z,9.35
2017-03-29T02:09:17.622Z,10.28
2017-03-29T02:10:16.961Z,10.80
2017-03-29T02:11:16.416Z,8.38
2017-03-29T02:12:15.892Z,9.33
2017-03-29T02:13:15.299Z,9.15
2017-03-29T02:14:14.678Z,8.47
2017-03-29T02:15:14.053Z,10.63
2017-03-29T02:16:13.364Z,8.55
2017-03-29T02:17:13.134Z,9.52
2017-03-29T02:18:12.511Z,9.67
2017-03-29T02:19:11.844Z,9.50
2017-03-29T02:20:11.315Z,8.50
2017-03-29T02:21:10.642Z,8.98
2017-03-29T02:22:10.710Z,9.67
2017-03-29T02:23:10.458Z,10.63
2017-03-29T02:24:09.780Z,9.25
2017-03-29T02:25:09.915Z,8.70
2017-03-29T02:26:09.311Z,10.02
2017-03-29T02:27:09.456Z,8.50
2017-03-29T02:28:08.814Z,8.03
2017-03-29T02:29:08.174Z,9.03
2017-03-29T02:30:07.500Z,9.77
2017-03-29T02:31:06.882Z,9.73
2017-03-29T02:32:06.321Z,8.48
2017-03-29T02:33:05.703Z,9.80
2017-03-29T02:34:05.003Z,8.80
2017-03-29T02:35:04.414Z,9.78
2017-03-29T02:36:03.787Z,9.28
2017-03-29T02:37:03.081Z,9.18
2017-03-29T02:38:02.464Z,9.92
2017-03-29T02:39:01.771Z,8.00
2017-03-29T02:40:01.132Z,9.35
2017-03-29T02:41:00.781Z,10.67
2017-03-29T02:42:00.151Z,9.70
2017-03-29T02:42:59.459Z,9.23
2017-03-29T02:43:59.699Z,7.97
2017-03-29T02:44:59.204Z,8.87
2017-03-29T02:45:58.513Z,10.05
2017-03-29T02:46:57.910Z,9.90
2017-03-29T02:47:57.297Z,9.03
2017-03-29T02:48:56.673Z,9.35
2017-03-29T02:49:56.052Z,10.17
2017-03-29T02:50:55.481Z,8.80
2017-03-29T02:51:54.888Z,10.43
2017-03-29T02:52:54.267Z,9.63
2017-03-29T02:53:53.624Z,10.75
2017-03-29T02:54:52.952Z,7.98
2017-03-29T02:55:52.342Z,8.65
2017-03-29T02:56:51.703Z,10.07
2017-03-29T02:57:51.053Z,10.53
2017-03-29T02:58:50.666Z,10.97
2017-03-29T02:59:49.971Z,11.25
2017-03-29T03:00:49.302Z,10.33
2017-03-29T03:01:48.790Z,10.28
2017-03-29T03:02:48.189Z,10.07
2017-03-29T03:03:47.560Z,14.58
2017-03-29T03:04:46.918Z,10.15
2017-03-29T03:05:46.267Z,11.10
2017-03-29T03:06:45.628Z,10.75
2017-03-29T03:07:45.045Z,10.02
2017-03-29T03:08:44.417Z,11.62
2017-03-29T03:09:43.786Z,10.45
2017-03-29T03:10:43.425Z,12.52
2017-03-29T03:11:42.734Z,9.47
2017-03-29T03:12:42.865Z,11.60
2017-03-29T03:13:42.739Z,10.68
2017-03-29T03:14:42.128Z,10.98
2017-03-29T03:15:42.313Z,9.20
2017-03-29T03:16:41.691Z,9.95
2017-03-29T03:17:41.044Z,8.63
2017-03-29T03:18:40.338Z,8.95
2017-03-29T03:19:39.686Z,9.27
2017-03-29T03:20:39.096Z,9.38
2017-03-29T03:21:38.413Z,11.10
2017-03-29T03:22:37.835Z,13.17
2017-03-29T03:23:37.161Z,8.87
2017-03-29T03:24:36.609Z,8.87
2017-03-29T03:25:36.025Z,10.75
2017-03-29T03:26:35.350Z,8.85
2017-03-29T03:27:34.667Z,10.28
2017-03-29T03:28:34.262Z,8.98
2017-03-29T03:29:33.641Z,9.38
2017-03-29T03:30:33.129Z,9.88
2017-03-29T03:31:32.518Z,10.27
2017-03-29T03:32:31.805Z,10.00
2017-03-29T03:33:31.218Z,11.22
2017-03-29T03:34:30.614Z,11.57
2017-03-29T03:35:29.960Z,10.17
2017-03-29T03:36:29.303Z,11.08
2017-03-29T03:37:28.663Z,10.92
2017-03-29T03:38:28.092Z,9.68
2017-03-29T03:39:27.515Z,9.52
2017-03-29T03:40:27.082Z,11.02
2017-03-29T03:41:26.475Z,8.83
2017-03-29T03:42:25.837Z,12.93
2017-03-29T03:43:25.990Z,9.53
2017-03-29T03:44:25.431Z,10.38
2017-03-29T03:45:24.840Z,8.90
2017-03-29T03:46:24.208Z,10.67
2017-03-29T03:47:23.630Z,11.90
2017-03-29T03:48:22.967Z,10.82
2017-03-29T03:49:22.717Z,10.67
2017-03-29T03:50:22.077Z,9.50
2017-03-29T03:51:21.410Z,9.55
2017-03-29T03:52:21.781Z,11.13
2017-03-29T03:53:21.128Z,9.40
2017-03-29T03:54:20.509Z,11.25
2017-03-29T03:55:19.885Z,9.88
2017-03-29T03:56:19.204Z,10.57
2017-03-29T03:57:18.579Z,12.52
2017-03-29T03:58:17.958Z,15.02
2017-03-29T03:59:17.272Z,11.05
2017-03-29T04:00:17.317Z,10.52
2017-03-29T04:01:16.627Z,11.18
2017-03-29T04:02:16.704Z,10.93
2017-03-29T04:03:16.074Z,10.83
2017-03-29T04:04:16.173Z,10.33
2017-03-29T04:05:15.471Z,10.95
2017-03-29T04:06:14.852Z,12.73
2017-03-29T04:07:14.910Z,11.40
2017-03-29T04:08:16.871Z,12.60
2017-03-29T04:09:16.224Z,11.23
2017-03-29T04:10:15.558Z,10.70
2017-03-29T04:11:14.990Z,13.42
2017-03-29T04:12:14.357Z,11.77
2017-03-29T04:13:13.741Z,12.67
2017-03-29T04:14:13.158Z,11.32
2017-03-29T04:15:12.748Z,11.07
2017-03-29T04:16:12.133Z,13.52
2017-03-29T04:17:11.443Z,12.57
2017-03-29T04:18:10.831Z,9.77
2017-03-29T04:19:10.174Z,11.33
2017-03-29T04:20:10.288Z,10.73
2017-03-29T04:21:09.641Z,12.80
2017-03-29T04:22:09.021Z,11.97
2017-03-29T04:23:08.382Z,11.43
2017-03-29T04:24:07.703Z,12.03
2017-03-29T04:25:07.166Z,10.57
2017-03-29T04:26:06.567Z,11.32
2017-03-29T04:27:06.253Z,13.32
2017-03-29T04:28:05.616Z,11.73
2017-03-29T04:29:04.964Z,12.52
2017-03-29T04:30:04.388Z,9.35
2017-03-29T04:31:03.748Z,11.98
2017-03-29T04:32:03.124Z,11.25
2017-03-29T04:33:02.482Z,12.95
2017-03-29T04:34:01.892Z,11.82
2017-03-29T04:35:01.265Z,11.32
2017-03-29T04:36:00.610Z,16.27
2017-03-29T04:36:59.975Z,13.42
2017-03-29T04:37:59.549Z,11.38
2017-03-29T04:38:58.872Z,10.43
2017-03-29T04:39:58.239Z,11.83
2017-03-29T04:40:57.591Z,11.68
2017-03-29T04:41:56.950Z,13.40
2017-03-29T04:42:56.322Z,16.35
2017-03-29T04:43:55.645Z,12.37
2017-03-29T04:44:55.287Z,10.63
2017-03-29T04:45:54.609Z,12.10
2017-03-29T04:46:54.661Z,14.57
2017-03-29T04:47:53.996Z,16.17
2017-03-29T04:48:55.043Z,15.22
2017-03-29T04:49:54.409Z,10.92
2017-03-29T04:50:53.771Z,13.25
2017-03-29T04:51:53.157Z,13.02
2017-03-29T04:52:52.512Z,11.67
2017-03-29T04:53:51.836Z,10.88
2017-03-29T04:54:51.177Z,10.30
2017-03-29T04:55:50.501Z,11.97
2017-03-29T04:56:50.609Z,11.58
2017-03-29T04:57:49.983Z,13.50
2017-03-29T04:58:49.270Z,10.07
2017-03-29T04:59:48.777Z,13.63
2017-03-29T05:00:48.205Z,10.42
2017-03-29T05:01:47.530Z,12.77
2017-03-29T05:02:47.236Z,13.87
2017-03-29T05:03:46.548Z,11.97
2017-03-29T05:04:45.907Z,11.97
2017-03-29T05:05:46.117Z,12.87
2017-03-29T05:06:45.524Z,10.48
2017-03-29T05:07:44.937Z,11.98
2017-03-29T05:08:44.293Z,11.60
2017-03-29T05:09:43.639Z,12.17
2017-03-29T05:10:43.007Z,13.95
2017-03-29T05:11:42.398Z,12.67
2017-03-29T05:12:42.476Z,15.38
2017-03-29T05:13:41.860Z,10.98
2017-03-29T05:14:41.459Z,12.95
2017-03-29T05:15:40.850Z,15.75
2017-03-29T05:16:40.301Z,14.17
2017-03-29T05:17:39.646Z,14.33
2017-03-29T05:18:39.046Z,12.13
2017-03-29T05:19:38.399Z,13.18
2017-03-29T05:20:37.773Z,15.90
2017-03-29T05:21:37.131Z,12.22
2017-03-29T05:22:36.495Z,13.67
2017-03-29T05:23:35.870Z,12.73
2017-03-29T05:24:36.034Z,14.17
2017-03-29T05:25:36.118Z,12.33
2017-03-29T05:26:36.232Z,13.55
2017-03-29T05:27:35.583Z,11.63
2017-03-29T05:28:34.921Z,16.55
2017-03-29T05:29:34.324Z,10.88
2017-03-29T05:30:33.662Z,13.38
2017-03-29T05:31:33.034Z,14.07
2017-03-29T05:32:32.749Z,13.22
2017-03-29T05:33:32.128Z,14.52
2017-03-29T05:34:31.497Z,12.77
2017-03-29T05:35:30.834Z,14.63
2017-03-29T05:36:30.163Z,13.72
2017-03-29T05:37:29.558Z,13.58
2017-03-29T05:38:28.938Z,14.45
2017-03-29T05:39:28.998Z,12.12
2017-03-29T05:40:28.353Z,13.93
2017-03-29T05:41:27.699Z,13.38
2017-03-29T05:42:27.052Z,10.70
2017-03-29T05:43:26.451Z,10.90
2017-03-29T05:44:25.819Z,12.32
2017-03-29T05:45:25.176Z,16.65
2017-03-29T05:46:24.557Z,13.83
2017-03-29T05:47:23.886Z,13.40
2017-03-29T05:48:23.422Z,11.60
2017-03-29T05:49:22.784Z,12.00
2017-03-29T05:50:22.549Z,11.95
2017-03-29T05:51:21.858Z,13.97
2017-03-29T05:52:21.228Z,12.92
2017-03-29T05:53:21.444Z,11.28
2017-03-29T05:54:20.749Z,11.35
2017-03-29T06:00:20.609Z,11.32
2017-03-29T06:01:20.810Z,13.00
2017-03-29T06:02:20.955Z,14.10
2017-03-29T06:03:20.358Z,12.83
2017-03-29T06:04:19.725Z,14.30
2017-03-29T06:05:19.663Z,14.35
2017-03-29T06:06:19.323Z,13.12
2017-03-29T06:07:18.661Z,14.68
2017-03-29T06:08:18.027Z,12.43
2017-03-29T06:09:17.346Z,14.68
2017-03-29T06:10:16.675Z,11.82
2017-03-29T06:11:16.018Z,14.03
2017-03-29T06:12:15.530Z,17.18
2017-03-29T06:13:14.858Z,15.07
2017-03-29T06:14:14.209Z,13.40
2017-03-29T06:15:13.602Z,11.87
2017-03-29T06:16:13.054Z,15.55
2017-03-29T06:17:12.388Z,14.65
2017-03-29T06:18:12.102Z,14.87
2017-03-29T06:19:11.762Z,14.25
2017-03-29T06:20:11.210Z,11.22
2017-03-29T06:21:10.514Z,12.87
2017-03-29T06:22:09.901Z,16.20
2017-03-29T06:23:09.279Z,13.57
2017-03-29T06:24:08.626Z,11.27
2017-03-29T06:25:07.985Z,12.80
2017-03-29T06:26:07.388Z,12.78
2017-03-29T06:27:06.853Z,12.67
2017-03-29T06:28:06.173Z,15.27
2017-03-29T06:29:05.500Z,15.03
2017-03-29T06:30:05.159Z,12.25
2017-03-29T06:31:04.534Z,16.63
2017-03-29T06:32:03.953Z,17.18
2017-03-29T06:33:03.326Z,12.58
2017-03-29T06:34:02.814Z,16.00
2017-03-29T06:35:02.178Z,17.17
2017-03-29T06:36:01.805Z,13.80
2017-03-29T06:37:01.145Z,13.55
2017-03-29T06:38:00.470Z,14.13
2017-03-29T06:39:00.599Z,15.43
2017-03-29T06:39:59.935Z,12.98
2017-03-29T06:40:59.277Z,14.60
2017-03-29T06:41:58.780Z,14.95
2017-03-29T06:42:58.153Z,14.15
2017-03-29T06:43:57.510Z,16.08
2017-03-29T06:44:56.851Z,13.82
2017-03-29T06:45:56.195Z,15.37
2017-03-29T06:46:55.516Z,15.20
2017-03-29T06:47:55.157Z,12.77
2017-03-29T06:48:54.505Z,14.25
2017-03-29T06:49:53.933Z,13.80
2017-03-29T06:50:54.054Z,17.00
2017-03-29T06:51:53.386Z,16.82
2017-03-29T06:52:52.765Z,13.37
2017-03-29T06:53:52.201Z,15.58
2017-03-29T06:54:51.561Z,14.93
2017-03-29T06:55:50.864Z,18.45
2017-03-29T06:56:51.007Z,14.50
2017-03-29T06:57:50.409Z,15.90
2017-03-29T06:58:49.785Z,13.70
2017-03-29T06:59:49.436Z,17.68
2017-03-29T07:00:48.802Z,15.18
2017-03-29T07:01:48.134Z,13.90
2017-03-29T07:02:48.275Z,20.15
2017-03-29T07:03:47.705Z,21.62
2017-03-29T07:04:47.089Z,15.77
2017-03-29T07:05:46.486Z,13.07
2017-03-29T07:06:45.844Z,13.25
2017-03-29T07:07:45.232Z,14.77
2017-03-29T07:08:44.608Z,17.98
2017-03-29T07:09:44.073Z,14.57
2017-03-29T07:10:44.236Z,13.28
2017-03-29T07:11:43.845Z,12.02
2017-03-29T07:12:43.325Z,12.83
2017-03-29T07:13:42.797Z,18.42
2017-03-29T07:14:42.984Z,19.43
2017-03-29T07:15:42.589Z,15.58
2017-03-29T07:16:41.997Z,14.52
2017-03-29T07:17:42.155Z,19.90
2017-03-29T07:18:41.508Z,16.07
2017-03-29T07:19:40.864Z,16.43
2017-03-29T07:20:40.240Z,14.72
2017-03-29T07:21:40.425Z,18.25
2017-03-29T07:22:39.798Z,16.92
2017-03-29T07:23:39.170Z,17.00
2017-03-29T07:24:38.743Z,14.90
2017-03-29T07:25:38.151Z,14.58
2017-03-29T07:26:37.935Z,23.50
2017-03-29T07:27:37.382Z,14.22
2017-03-29T07:28:36.793Z,17.87
2017-03-29T07:29:36.414Z,17.40
2017-03-29T07:30:35.849Z,14.77
2017-03-29T07:31:35.221Z,16.47
2017-03-29T07:32:34.576Z,13.55
2017-03-29T07:33:33.974Z,17.12
2017-03-29T07:34:33.336Z,15.50
2017-03-29T07:35:32.720Z,12.48
2017-03-29T07:36:32.215Z,11.52
2017-03-29T07:37:31.582Z,12.63
2017-03-29T07:38:31.057Z,15.20
2017-03-29T07:39:30.422Z,23.65
2017-03-29T07:40:29.803Z,18.35
2017-03-29T07:41:29.462Z,14.83
2017-03-29T07:42:28.767Z,13.63
2017-03-29T07:43:28.117Z,16.47
2017-03-29T07:44:27.508Z,14.57
2017-03-29T07:45:26.854Z,18.22
2017-03-29T07:46:26.274Z,15.68
2017-03-29T07:47:25.790Z,13.97
2017-03-29T07:48:25.313Z,14.73
2017-03-29T07:49:24.722Z,15.63
2017-03-29T07:50:24.058Z,16.30
2017-03-29T07:51:23.526Z,14.20
2017-03-29T07:52:22.898Z,15.08
2017-03-29T07:53:22.262Z,13.13
2017-03-29T07:54:21.673Z,13.65
2017-03-29T07:55:21.055Z,13.93
2017-03-29T07:56:20.482Z,11.33
2017-03-29T07:57:19.865Z,9.62
2017-03-29T07:58:19.215Z,9.70
2017-03-29T07:59:18.573Z,8.93
2017-03-29T08:00:17.990Z,8.87
2017-03-29T08:01:17.352Z,12.90
2017-03-29T08:02:16.734Z,12.72
2017-03-29T08:03:16.976Z,9.40
2017-03-29T08:04:16.422Z,11.33
2017-03-29T08:05:16.190Z,9.13
2017-03-29T08:06:15.573Z,10.10
2017-03-29T08:07:14.985Z,11.72
2017-03-29T08:08:14.365Z,11.53
2017-03-29T08:09:13.767Z,9.17
2017-03-29T08:10:13.178Z,8.85
2017-03-29T08:11:12.872Z,9.50
2017-03-29T08:12:12.319Z,11.73
2017-03-29T08:13:11.801Z,10.77
2017-03-29T08:14:11.948Z,10.08
2017-03-29T08:15:11.401Z,9.38
2017-03-29T08:16:10.765Z,10.33
2017-03-29T08:17:10.137Z,12.73
2017-03-29T08:18:09.519Z,10.38
2017-03-29T08:19:08.864Z,9.73
2017-03-29T08:20:08.217Z,10.58
2017-03-29T08:21:07.586Z,10.32
2017-03-29T08:22:06.936Z,12.15
2017-03-29T08:23:06.489Z,8.62
2017-03-29T08:24:05.855Z,9.85
2017-03-29T08:25:05.177Z,8.35
2017-03-29T08:26:04.551Z,8.80
2017-03-29T08:27:03.888Z,8.85
2017-03-29T08:28:04.044Z,8.37
2017-03-29T08:29:03.453Z,8.32
2017-03-29T08:30:02.853Z,9.50
2017-03-29T08:31:02.308Z,10.82
2017-03-29T08:32:01.684Z,9.20
2017-03-29T08:33:01.116Z,10.68
2017-03-29T08:34:01.248Z,8.67
2017-03-29T08:35:00.819Z,8.25
2017-03-29T08:36:00.985Z,8.77
2017-03-29T08:37:00.355Z,7.98
2017-03-29T08:37:59.717Z,8.55
2017-03-29T08:38:59.421Z,9.02
2017-03-29T08:39:58.793Z,8.43
2017-03-29T08:40:58.122Z,8.58
2017-03-29T08:41:57.468Z,7.05
2017-03-29T08:42:56.811Z,9.42
2017-03-29T08:43:56.147Z,7.65
2017-03-29T08:44:55.613Z,7.40
2017-03-29T08:45:54.936Z,8.17
2017-03-29T08:46:54.508Z,7.12
2017-03-29T08:47:53.839Z,7.25
2017-03-29T08:48:53.184Z,8.32
2017-03-29T08:49:52.526Z,9.48
2017-03-29T08:50:51.860Z,10.93
2017-03-29T08:51:51.202Z,7.98
2017-03-29T08:52:50.667Z,8.02
2017-03-29T08:53:50.200Z,7.67
2017-03-29T08:54:49.553Z,7.13
2017-03-29T08:55:48.924Z,9.45
2017-03-29T08:56:48.267Z,7.07
2017-03-29T08:57:47.636Z,9.18
2017-03-29T08:58:47.307Z,8.40
2017-03-29T08:59:46.668Z,6.78
2017-03-29T09:00:46.039Z,8.78
2017-03-29T09:01:45.437Z,6.85
2017-03-29T09:02:45.763Z,6.90
2017-03-29T09:03:45.119Z,7.32
2017-03-29T09:04:44.521Z,7.00
2017-03-29T09:05:43.870Z,5.97
2017-03-29T09:06:43.204Z,6.08
2017-03-29T09:07:42.578Z,6.98
2017-03-29T09:08:42.774Z,5.45
2017-03-29T09:09:42.104Z,4.93
2017-03-29T09:10:41.802Z,5.85
2017-03-29T09:11:41.139Z,5.53
2017-03-29T09:12:40.522Z,4.23
2017-03-29T09:13:39.945Z,4.77
2017-03-29T09:14:40.053Z,5.00
2017-03-29T09:15:39.369Z,9.73
2017-03-29T09:16:38.937Z,6.22
2017-03-29T09:17:38.280Z,4.57
2017-03-29T09:18:37.645Z,4.25
2017-03-29T09:19:37.005Z,4.87
2017-03-29T09:20:36.336Z,5.45
2017-03-29T09:21:36.374Z,3.53
2017-03-29T09:22:35.725Z,5.77
2017-03-29T09:23:35.015Z,4.98
2017-03-29T09:24:34.362Z,4.25
2017-03-29T09:25:34.414Z,4.25
2017-03-29T09:26:33.804Z,4.62
2017-03-29T09:27:33.190Z,6.47
2017-03-29T09:28:32.776Z,5.72
2017-03-29T09:29:32.842Z,8.33
2017-03-29T09:30:32.206Z,5.72
2017-03-29T09:31:31.542Z,4.17
2017-03-29T09:32:30.868Z,3.68
2017-03-29T09:33:30.294Z,4.00
2017-03-29T09:34:29.641Z,6.72
2017-03-29T09:35:28.931Z,5.37
2017-03-29T09:36:28.265Z,5.18
2017-03-29T09:37:27.629Z,6.85
2017-03-29T09:38:27.019Z,5.50
2017-03-29T09:39:26.364Z,4.88
2017-03-29T09:40:26.008Z,5.37
2017-03-29T09:41:25.454Z,5.87
2017-03-29T09:42:24.880Z,5.75
2017-03-29T09:43:24.309Z,3.88
2017-03-29T09:44:23.684Z,4.05
2017-03-29T09:45:23.861Z,5.13
2017-03-29T09:46:24.006Z,4.35
2017-03-29T09:47:23.350Z,4.47
2017-03-29T09:48:22.736Z,6.37
2017-03-29T09:49:22.913Z,5.73
2017-03-29T09:50:22.286Z,4.82
2017-03-29T09:51:21.633Z,5.38
2017-03-29T09:52:21.143Z,7.25
2017-03-29T09:53:20.974Z,5.25
2017-03-29T09:54:20.426Z,5.97
2017-03-29T09:55:19.858Z,7.88
2017-03-29T09:56:19.237Z,10.78
2017-03-29T09:57:18.577Z,7.68
2017-03-29T09:58:18.017Z,5.15
2017-03-29T09:59:17.498Z,10.82
2017-03-29T10:00:16.891Z,6.75
2017-03-29T10:01:16.319Z,5.30
2017-03-29T10:02:15.716Z,7.00
2017-03-29T10:03:15.152Z,7.10
2017-03-29T10:04:14.584Z,6.03
2017-03-29T10:05:13.936Z,6.15
2017-03-29T10:06:13.349Z,5.95
2017-03-29T10:07:12.774Z,7.38
2017-03-29T10:08:12.183Z,6.97
2017-03-29T10:09:11.624Z,6.20
2017-03-29T10:10:11.312Z,5.65
2017-03-29T10:11:10.696Z,8.77
2017-03-29T10:12:10.079Z,6.23
2017-03-29T10:13:09.585Z,8.18
2017-03-29T10:14:09.067Z,5.38
2017-03-29T10:15:08.487Z,5.67
2017-03-29T10:16:07.863Z,4.98
2017-03-29T10:17:07.259Z,5.45
2017-03-29T10:18:07.359Z,6.23
2017-03-29T10:19:06.892Z,5.32
2017-03-29T10:20:06.255Z,8.25
2017-03-29T10:21:05.633Z,8.78
2017-03-29T10:22:05.368Z,9.30
2017-03-29T10:23:04.765Z,6.12
2017-03-29T10:24:04.129Z,7.15
2017-03-29T10:25:03.502Z,7.28
2017-03-29T10:26:02.915Z,6.10
2017-03-29T10:27:02.292Z,6.77
2017-03-29T10:28:01.646Z,8.05
2017-03-29T10:29:01.027Z,5.30
2017-03-29T10:30:00.445Z,6.08
2017-03-29T10:30:59.889Z,7.82
2017-03-29T10:31:59.221Z,5.27
2017-03-29T10:32:58.544Z,7.32
2017-03-29T10:33:58.250Z,6.60
2017-03-29T10:34:57.600Z,8.40
2017-03-29T10:35:57.085Z,7.35
2017-03-29T10:36:56.456Z,7.22
2017-03-29T10:37:55.783Z,5.60
2017-03-29T10:38:55.144Z,6.42
2017-03-29T10:39:54.594Z,5.38
2017-03-29T10:40:53.968Z,6.53
2017-03-29T10:41:53.357Z,5.82
2017-03-29T10:42:52.726Z,5.48
2017-03-29T10:43:52.082Z,6.08
2017-03-29T10:44:52.181Z,5.52
2017-03-29T10:45:51.650Z,9.43
2017-03-29T10:46:50.960Z,5.27
2017-03-29T10:47:50.895Z,5.50
2017-03-29T10:48:50.372Z,6.07
2017-03-29T10:49:49.805Z,7.05
2017-03-29T10:50:49.185Z,5.65
2017-03-29T10:51:48.845Z,5.38
2017-03-29T10:52:48.224Z,5.67
2017-03-29T10:53:47.568Z,7.47
2017-03-29T10:54:46.898Z,5.93
2017-03-29T10:55:46.298Z,5.40
2017-03-29T10:56:45.694Z,5.35
2017-03-29T10:57:45.266Z,5.95
2017-03-29T10:58:44.594Z,5.25
2017-03-29T10:59:43.990Z,6.13
2017-03-29T11:00:43.350Z,4.82
2017-03-29T11:01:42.719Z,5.13
2017-03-29T11:02:42.065Z,7.72
2017-03-29T11:03:41.537Z,4.92
2017-03-29T11:04:41.459Z,5.88
2017-03-29T11:05:40.788Z,6.25
2017-03-29T11:06:41.006Z,4.12
2017-03-29T11:07:40.378Z,4.48
2017-03-29T11:08:39.724Z,6.10
2017-03-29T11:09:39.365Z,4.18
2017-03-29T11:10:38.720Z,3.83
2017-03-29T11:11:38.026Z,5.00
2017-03-29T11:12:37.504Z,5.53
2017-03-29T11:13:36.931Z,5.30
2017-03-29T11:14:36.225Z,6.12
2017-03-29T11:15:35.603Z,4.57
2017-03-29T11:16:34.968Z,3.70
2017-03-29T11:17:34.479Z,6.80
2017-03-29T11:18:33.993Z,4.47
2017-03-29T11:19:33.357Z,4.25
2017-03-29T11:20:32.847Z,6.07
2017-03-29T11:21:32.273Z,5.47
2017-03-29T11:22:32.414Z,4.82
2017-03-29T11:23:31.791Z,3.67
2017-03-29T11:24:31.156Z,3.92
2017-03-29T11:25:30.495Z,6.07
2017-03-29T11:26:29.870Z,4.98
2017-03-29T11:27:30.304Z,6.58
2017-03-29T11:28:29.635Z,4.52
2017-03-29T11:29:28.991Z,3.30
2017-03-29T11:30:29.084Z,3.90
2017-03-29T11:31:28.478Z,3.95
2017-03-29T11:32:28.651Z,4.13
2017-03-29T11:33:28.128Z,5.03
2017-03-29T11:34:27.514Z,5.68
2017-03-29T11:35:26.893Z,4.93
2017-03-29T11:36:26.342Z,6.07
2017-03-29T11:37:25.812Z,6.32
2017-03-29T11:38:25.173Z,3.98
2017-03-29T11:39:24.602Z,3.48
2017-03-29T11:40:23.967Z,5.00
2017-03-29T11:41:23.309Z,4.20
2017-03-29T11:42:22.633Z,3.00
2017-03-29T11:43:22.042Z,4.38
2017-03-29T11:44:21.414Z,7.35
2017-03-29T11:45:21.559Z,4.07
2017-03-29T11:46:20.918Z,4.05
2017-03-29T11:47:20.247Z,4.02
2017-03-29T11:48:19.613Z,2.65
2017-03-29T11:49:18.948Z,3.23
2017-03-29T11:50:18.310Z,3.05
2017-03-29T11:51:17.737Z,3.08
2017-03-29T11:52:17.182Z,4.77
2017-03-29T11:53:17.502Z,4.07
2017-03-29T11:54:16.854Z,5.38
2017-03-29T11:55:16.259Z,6.90
2017-03-29T11:56:15.627Z,3.25
2017-03-29T11:57:15.281Z,3.82
2017-03-29T11:58:14.629Z,3.52
2017-03-29T11:59:13.983Z,4.70
2017-03-29T12:00:13.393Z,3.63
2017-03-29T12:01:12.807Z,2.33
2017-03-29T12:02:12.158Z,2.43
2017-03-29T12:03:11.568Z,6.23
2017-03-29T12:04:10.953Z,3.25
2017-03-29T12:05:10.313Z,2.85
2017-03-29T12:06:09.663Z,4.20
2017-03-29T12:07:09.057Z,4.72
2017-03-29T12:08:08.386Z,3.87
2017-03-29T12:09:08.050Z,3.73
2017-03-29T12:10:07.520Z,3.25
2017-03-29T12:11:06.905Z,3.05
2017-03-29T12:12:06.363Z,2.57
2017-03-29T12:13:05.762Z,2.77
2017-03-29T12:14:05.230Z,2.48
2017-03-29T12:15:04.588Z,2.97
2017-03-29T12:16:03.931Z,3.02
2017-03-29T12:17:09.895Z,4.85
2017-03-29T12:18:10.102Z,3.67
2017-03-29T12:19:10.007Z,2.97
2017-03-29T12:20:09.430Z,3.50
2017-03-29T12:21:09.646Z,4.08
2017-03-29T12:22:09.009Z,6.47
2017-03-29T12:23:08.400Z,3.20
2017-03-29T12:24:07.806Z,3.87
2017-03-29T12:25:07.121Z,3.38
2017-03-29T12:26:07.134Z,4.37
2017-03-29T12:27:06.614Z,4.83
2017-03-29T12:28:05.994Z,3.88
2017-03-29T12:29:06.753Z,4.68
2017-03-29T12:30:06.195Z,5.48
2017-03-29T12:31:06.353Z,3.63
2017-03-29T12:32:05.820Z,2.60
2017-03-29T12:33:05.205Z,2.95
2017-03-29T12:34:04.498Z,3.93
2017-03-29T12:35:03.865Z,3.62
2017-03-29T12:36:03.247Z,2.80
2017-03-29T12:37:03.355Z,2.62
2017-03-29T12:38:02.712Z,2.35
2017-03-29T12:39:03.117Z,4.02
2017-03-29T12:40:02.489Z,3.82
2017-03-29T12:41:01.861Z,3.93
2017-03-29T12:42:01.191Z,4.07
2017-03-29T12:43:00.598Z,3.60
2017-03-29T12:43:59.952Z,3.60
2017-03-29T12:44:59.346Z,3.73
2017-03-29T12:45:58.709Z,4.13
2017-03-29T12:46:58.036Z,3.70
2017-03-29T12:47:57.355Z,3.98
2017-03-29T12:48:56.705Z,5.12
2017-03-29T12:49:56.066Z,3.55
2017-03-29T12:50:55.449Z,4.53
2017-03-29T12:51:54.807Z,3.80
2017-03-29T12:52:54.193Z,4.05
2017-03-29T12:53:53.585Z,3.00
2017-03-29T12:54:52.937Z,4.88
2017-03-29T12:55:52.492Z,4.25
2017-03-29T12:56:51.932Z,4.27
2017-03-29T12:57:51.297Z,4.15
2017-03-29T12:58:50.612Z,3.97
2017-03-29T12:59:50.751Z,2.63
2017-03-29T13:00:50.126Z,3.38
2017-03-29T13:01:49.542Z,2.98
2017-03-29T13:02:48.886Z,2.40
2017-03-29T13:03:48.955Z,6.55
2017-03-29T13:04:48.348Z,4.50